Pocantico Hills, New York
Current Conditions -  °F | °C
As of 6:56 AM on Monday 24 Nov 2014 (Local Time) from KHPN Reporting Station
Light Rain Light Rain  
Wind Chill: 61°   Ceiling: 400
Heat Index: 61°   Visibility: 2mi
Dew Point: 60°   Wind: 18mph
Humidity: 97%   Direction: 180°S
Pressure: 29.7"   Gusts: 36mph
Location:  41.0851°N, 73.846°W
Report Text: KHPN 241156Z 18016G31KT 2SM -RA BR OVC004 16/16 A2970 RMK AO2 PK WND 18031/1153 SLP059 P0011 60110 70110 T01610156 10161 20089 56026
Loading
Personal Weather Stations






























Interactive Weather Map New forecast layout! Learn more

10-Day Weather Forecast

Advertisements
Track Severe Weather on mobile